Time;durP1;ratioP1;P1;durP2;ratioP2;P2;SDS_P1;SDS_P2;PMS_P1;PMS_P2;Temp;Humidity;BMP_temperature;BMP_pressure;BME280_temperature;BME280_humidity;BME280_pressure;Samples;Min_cycle;Max_cycle;Signal;HPM_P1;HPM_P2
2024/03/22 00:02:11;;;;;;;10.17;7.20;;;7.90;99.90;;;;;;4864900;29;20629;-92
2024/03/22 00:04:37;;;;;;;13.33;7.80;;;7.90;99.90;;;;;;4864730;29;20219;-90
2024/03/22 00:07:03;;;;;;;10.87;7.20;;;7.90;99.90;;;;;;4864890;29;20390;-91
2024/03/22 00:09:30;;;;;;;8.13;6.83;;;7.80;99.90;;;;;;4860580;29;20264;-91
2024/03/22 00:11:56;;;;;;;11.27;7.73;;;7.90;99.90;;;;;;4845300;29;20192;-90
2024/03/22 00:14:21;;;;;;;13.90;7.90;;;7.90;99.90;;;;;;4845533;29;20267;-90
2024/03/22 00:16:48;;;;;;;11.97;8.50;;;7.90;99.90;;;;;;4845189;29;20223;-90
2024/03/22 00:19:14;;;;;;;13.10;8.23;;;7.90;99.90;;;;;;4845190;29;20181;-91
2024/03/22 00:21:40;;;;;;;10.57;7.87;;;7.90;99.90;;;;;;4844866;29;20253;-91
2024/03/22 00:24:05;;;;;;;12.90;8.50;;;7.90;99.90;;;;;;4861227;29;20169;-91
2024/03/22 00:26:31;;;;;;;11.83;8.57;;;7.90;99.90;;;;;;4845110;29;20181;-91
2024/03/22 00:29:00;;;;;;;11.97;8.27;;;8.00;99.90;;;;;;4845137;29;20181;-93
2024/03/22 00:31:32;;;;;;;11.20;8.10;;;7.90;99.90;;;;;;4845146;29;20195;-91
2024/03/22 00:33:57;;;;;;;12.17;8.60;;;7.90;99.90;;;;;;4845096;29;20183;-91
2024/03/22 00:36:23;;;;;;;12.13;8.80;;;7.90;99.90;;;;;;4844919;29;20181;-93
2024/03/22 00:38:49;;;;;;;10.83;8.63;;;8.00;99.90;;;;;;4844948;29;20576;-92
2024/03/22 00:41:18;;;;;;;14.47;8.37;;;7.90;99.90;;;;;;4845060;29;20185;-90
2024/03/22 00:43:44;;;;;;;12.63;9.27;;;8.00;99.90;;;;;;4847026;29;20264;-91
2024/03/22 00:46:10;;;;;;;13.13;9.30;;;8.00;99.90;;;;;;4848073;29;20237;-92
2024/03/22 00:48:36;;;;;;;16.47;9.03;;;8.00;99.90;;;;;;4848120;29;20181;-91
2024/03/22 00:51:02;;;;;;;12.97;9.67;;;8.00;99.90;;;;;;4848121;29;20233;-93
2024/03/22 00:53:28;;;;;;;15.90;10.37;;;8.00;99.90;;;;;;4848110;29;20691;-92
2024/03/22 00:55:56;;;;;;;15.40;10.63;;;8.00;99.90;;;;;;4847798;29;20185;-91
2024/03/22 00:58:22;;;;;;;18.20;10.47;;;8.00;99.90;;;;;;4847930;29;20185;-92
2024/03/22 01:00:47;;;;;;;15.50;10.87;;;8.10;99.90;;;;;;4847826;29;20188;-91
2024/03/22 01:03:13;;;;;;;16.47;11.33;;;8.10;99.90;;;;;;4847896;29;20192;-91
2024/03/22 01:05:40;;;;;;;17.07;11.47;;;8.10;99.90;;;;;;4862249;29;20680;-91
2024/03/22 01:08:06;;;;;;;15.27;11.23;;;8.10;99.90;;;;;;4800040;29;1423029;-92
2024/03/22 01:10:33;;;;;;;18.83;11.83;;;8.10;99.90;;;;;;4848667;29;20633;-90
2024/03/22 01:13:01;;;;;;;18.80;12.97;;;8.10;99.90;;;;;;4848979;29;20275;-92
2024/03/22 01:15:27;;;;;;;17.93;12.07;;;8.10;99.90;;;;;;4848759;29;20241;-90
2024/03/22 01:17:53;;;;;;;22.17;12.47;;;8.10;99.90;;;;;;4848709;29;20216;-89
2024/03/22 01:20:19;;;;;;;20.23;12.90;;;8.10;99.90;;;;;;4848580;29;20188;-93
2024/03/22 01:23:00;;;;;;;18.87;12.90;;;8.10;99.90;;;;;;4864052;29;20532;-90
2024/03/22 01:25:27;;;;;;;23.50;14.10;;;8.10;99.90;;;;;;4864936;29;20300;-92
2024/03/22 01:27:53;;;;;;;19.50;13.67;;;8.20;99.90;;;;;;4848721;29;20184;-91
2024/03/22 01:30:19;;;;;;;22.73;14.13;;;8.10;99.90;;;;;;4848521;29;20199;-91
2024/03/22 01:32:53;;;;;;;18.70;14.10;;;8.10;99.90;;;;;;4848244;29;20190;-90
2024/03/22 01:35:18;;;;;;;24.57;15.03;;;8.20;99.90;;;;;;4848346;29;20189;-89
2024/03/22 01:37:44;;;;;;;23.80;14.50;;;8.20;99.90;;;;;;4847964;29;20617;-90
2024/03/22 01:40:11;;;;;;;26.03;15.03;;;8.20;99.90;;;;;;4848216;29;20621;-89
2024/03/22 01:42:44;;;;;;;20.90;15.07;;;8.20;99.90;;;;;;4864704;29;20183;-91
2024/03/22 01:45:13;;;;;;;21.30;15.37;;;8.20;99.90;;;;;;4848119;29;20711;-91
2024/03/22 01:47:39;;;;;;;23.10;14.93;;;8.20;99.90;;;;;;4847896;29;20188;-91
2024/03/22 01:50:07;;;;;;;23.70;16.30;;;8.20;99.90;;;;;;4848016;29;20191;-89
2024/03/22 01:52:33;;;;;;;26.77;16.83;;;8.20;99.90;;;;;;4847883;29;20534;-92
2024/03/22 01:54:59;;;;;;;24.77;15.80;;;8.20;99.90;;;;;;4846550;29;20245;-92
2024/03/22 01:57:25;;;;;;;27.57;17.73;;;8.20;99.90;;;;;;4848069;29;20563;-92
2024/03/22 01:59:55;;;;;;;24.30;17.43;;;8.20;99.90;;;;;;4847887;29;20643;-91
2024/03/22 02:02:26;;;;;;;30.30;18.23;;;8.30;99.90;;;;;;4847830;29;20633;-90
2024/03/22 02:04:53;;;;;;;28.93;18.37;;;8.30;99.90;;;;;;4847766;29;20224;-91
2024/03/22 02:07:19;;;;;;;27.30;18.73;;;8.30;99.90;;;;;;4848007;29;20253;-91
2024/03/22 02:09:45;;;;;;;30.07;19.10;;;8.30;99.90;;;;;;4864106;29;20240;-92
2024/03/22 02:12:12;;;;;;;31.07;19.60;;;8.30;99.90;;;;;;4847722;29;20184;-90
2024/03/22 02:14:39;;;;;;;30.60;20.30;;;8.30;99.90;;;;;;4847669;29;20563;-92
2024/03/22 02:17:05;;;;;;;28.33;18.67;;;8.30;99.90;;;;;;4848162;29;20196;-94
2024/03/22 02:19:30;;;;;;;31.10;19.97;;;8.30;99.90;;;;;;4847429;29;20188;-91
2024/03/22 02:21:57;;;;;;;29.97;20.23;;;8.30;99.90;;;;;;4847419;29;20184;-91
2024/03/22 02:24:23;;;;;;;34.75;21.05;;;8.30;99.90;;;;;;4847199;29;20177;-91
2024/03/22 02:26:49;;;;;;;30.33;19.87;;;8.30;99.90;;;;;;4847363;29;20210;-91
2024/03/22 02:29:15;;;;;;;31.93;20.87;;;8.30;99.90;;;;;;4847292;29;20575;-91
2024/03/22 02:31:41;;;;;;;35.73;21.97;;;8.30;99.90;;;;;;4847431;29;20195;-92
2024/03/22 02:34:09;;;;;;;34.13;22.03;;;8.30;99.90;;;;;;4847286;29;20219;-91
2024/03/22 02:36:35;;;;;;;37.03;22.07;;;8.40;99.90;;;;;;4847663;29;20618;-92
2024/03/22 02:39:01;;;;;;;38.28;22.27;;;8.40;99.90;;;;;;4847054;29;20202;-91
2024/03/22 02:41:27;;;;;;;31.63;21.70;;;8.40;99.90;;;;;;4847122;29;20605;-93
2024/03/22 02:44:00;;;;;;;35.33;22.47;;;8.40;99.90;;;;;;4847323;29;20525;-91
2024/03/22 02:46:26;;;;;;;33.77;20.97;;;8.40;99.90;;;;;;4847151;29;20212;-92
2024/03/22 02:48:52;;;;;;;35.33;22.90;;;8.40;99.90;;;;;;4847365;29;20184;-91
2024/03/22 02:51:18;;;;;;;37.08;21.95;;;8.40;99.90;;;;;;4847264;29;20284;-92
2024/03/22 02:53:45;;;;;;;35.43;22.93;;;8.40;99.90;;;;;;4847053;29;20185;-92
2024/03/22 02:56:11;;;;;;;36.47;22.38;;;8.40;99.90;;;;;;4846880;29;20172;-91
2024/03/22 02:58:37;;;;;;;37.28;22.95;;;8.40;99.90;;;;;;4863410;29;20244;-90
2024/03/22 03:01:03;;;;;;;34.17;22.10;;;8.40;99.90;;;;;;4847081;29;20275;-91
2024/03/22 03:03:32;;;;;;;34.33;22.43;;;8.40;99.90;;;;;;4847034;29;20200;-90
2024/03/22 03:05:58;;;;;;;36.60;22.23;;;8.40;99.90;;;;;;4846593;29;20208;-91
2024/03/22 03:08:24;;;;;;;36.90;22.65;;;8.40;99.90;;;;;;4846562;29;20236;-91
2024/03/22 03:10:49;;;;;;;35.50;23.03;;;8.40;99.90;;;;;;4846825;29;20185;-90
2024/03/22 03:13:28;;;;;;;37.80;22.63;;;8.40;99.90;;;;;;4862016;29;20192;-92
2024/03/22 03:15:54;;;;;;;35.73;22.90;;;8.40;99.90;;;;;;4846861;29;20176;-90
2024/03/22 03:18:20;;;;;;;39.93;23.97;;;8.40;99.90;;;;;;4863449;29;20184;-91
2024/03/22 03:20:46;;;;;;;31.20;22.50;;;8.40;99.90;;;;;;4846796;29;20582;-91
2024/03/22 03:23:11;;;;;;;34.10;22.43;;;8.40;99.90;;;;;;4862101;29;20275;-90
2024/03/22 03:25:37;;;;;;;35.28;23.90;;;8.40;99.90;;;;;;4845870;29;20216;-92
2024/03/22 03:30:39;;;;;;;33.47;22.30;;;8.40;99.90;;;;;;4881693;24;20303;-86
2024/03/22 03:33:05;;;;;;;33.37;21.67;;;8.40;99.90;;;;;;4864275;29;20195;-87
2024/03/22 03:35:31;;;;;;;36.83;23.30;;;8.40;99.90;;;;;;4864383;29;20509;-88
2024/03/22 03:37:57;;;;;;;35.60;22.57;;;8.40;99.90;;;;;;4880986;29;20186;-87
2024/03/22 03:40:24;;;;;;;38.17;22.60;;;8.40;99.90;;;;;;4880950;29;20590;-86
2024/03/22 03:42:51;;;;;;;32.97;22.33;;;8.50;99.90;;;;;;4864381;29;20200;-87
2024/03/22 03:45:17;;;;;;;35.33;21.63;;;8.50;99.90;;;;;;4863953;29;20219;-87
2024/03/22 03:47:43;;;;;;;31.33;21.07;;;8.50;99.90;;;;;;4879707;29;20660;-89
2024/03/22 03:50:09;;;;;;;29.03;20.47;;;8.50;99.90;;;;;;4879560;29;20274;-87
2024/03/22 03:52:35;;;;;;;34.77;21.50;;;8.40;99.90;;;;;;4864467;29;20172;-86
2024/03/22 03:55:00;;;;;;;33.10;21.50;;;8.50;99.90;;;;;;4864259;29;20608;-87
2024/03/22 03:57:26;;;;;;;32.73;22.17;;;8.40;99.90;;;;;;4880926;29;20660;-88
2024/03/22 03:59:52;;;;;;;30.13;20.53;;;8.40;99.90;;;;;;4864397;29;20552;-89
2024/03/22 04:02:18;;;;;;;31.07;21.07;;;8.40;99.90;;;;;;4879822;29;20188;-87
2024/03/22 04:04:44;;;;;;;33.33;21.27;;;8.40;99.90;;;;;;4879769;29;20220;-87
2024/03/22 04:07:10;;;;;;;32.20;21.20;;;8.40;99.90;;;;;;4881160;29;20188;-88
2024/03/22 04:09:35;;;;;;;31.92;21.17;;;8.40;99.90;;;;;;4880864;29;20184;-88
2024/03/22 04:12:02;;;;;;;30.57;21.60;;;8.40;99.90;;;;;;4879549;29;20627;-88
2024/03/22 04:14:28;;;;;;;30.17;21.03;;;8.40;99.90;;;;;;4863728;29;20188;-88
2024/03/22 04:16:55;;;;;;;31.67;20.47;;;8.40;99.90;;;;;;4879331;29;20195;-87
2024/03/22 04:19:21;;;;;;;32.77;22.03;;;8.40;99.90;;;;;;4883744;29;20623;-88
2024/03/22 04:21:50;;;;;;;36.47;21.67;;;8.40;99.90;;;;;;4867307;29;20619;-86
2024/03/22 04:24:16;;;;;;;34.37;21.27;;;8.40;99.90;;;;;;4884039;29;20180;-87
2024/03/22 04:26:42;;;;;;;29.83;20.10;;;8.40;99.90;;;;;;4883836;29;20245;-87
2024/03/22 04:29:07;;;;;;;29.47;21.07;;;8.40;99.90;;;;;;4879391;29;20247;-87
2024/03/22 04:31:35;;;;;;;34.80;20.67;;;8.40;99.90;;;;;;4865778;29;20196;-87
2024/03/22 04:34:02;;;;;;;31.47;20.90;;;8.40;99.90;;;;;;4867183;29;20532;-87
2024/03/22 04:36:28;;;;;;;30.97;21.60;;;8.40;99.90;;;;;;4867123;29;20188;-86
2024/03/22 04:38:53;;;;;;;29.70;21.03;;;8.50;99.90;;;;;;4882590;29;20740;-87
2024/03/22 04:41:20;;;;;;;27.73;20.13;;;8.50;99.90;;;;;;4866977;29;20180;-86
2024/03/22 04:43:46;;;;;;;32.30;21.67;;;8.40;99.90;;;;;;4867134;29;20180;-86
2024/03/22 04:46:12;;;;;;;30.90;21.23;;;8.40;99.90;;;;;;4883530;29;20216;-86
2024/03/22 04:48:38;;;;;;;34.30;21.77;;;8.40;99.90;;;;;;4883535;29;20267;-87
2024/03/22 04:51:04;;;;;;;33.87;21.47;;;8.40;99.90;;;;;;4866912;29;20280;-88
2024/03/22 04:53:30;;;;;;;34.67;22.07;;;8.40;99.90;;;;;;4866857;29;20631;-86
2024/03/22 04:55:56;;;;;;;32.47;21.37;;;8.40;99.90;;;;;;4866641;29;20187;-86
2024/03/22 04:58:22;;;;;;;34.63;21.33;;;8.40;99.90;;;;;;4866573;29;20509;-86
2024/03/22 05:00:49;;;;;;;32.08;20.38;;;8.40;99.90;;;;;;4881726;29;20227;-88
2024/03/22 05:03:16;;;;;;;32.43;20.47;;;8.40;99.90;;;;;;4866516;29;20180;-86
2024/03/22 05:05:42;;;;;;;32.57;21.00;;;8.50;99.90;;;;;;4866423;29;20604;-86
2024/03/22 05:08:09;;;;;;;31.33;20.37;;;8.50;99.90;;;;;;4866350;29;20227;-86
2024/03/22 05:10:36;;;;;;;34.42;20.63;;;8.50;99.90;;;;;;4866543;29;20274;-86
2024/03/22 05:13:01;;;;;;;32.97;21.23;;;8.50;99.90;;;;;;4866343;29;20567;-87
2024/03/22 05:15:28;;;;;;;30.47;19.93;;;8.50;99.90;;;;;;4866153;29;20192;-87
2024/03/22 05:17:57;;;;;;;32.58;20.98;;;8.50;99.90;;;;;;4866337;29;20192;-87
2024/03/22 05:20:23;;;;;;;28.97;19.07;;;8.60;99.90;;;;;;4866170;29;20620;-86
2024/03/22 05:22:50;;;;;;;32.70;20.27;;;8.50;99.90;;;;;;4866275;29;20184;-87
2024/03/22 05:25:16;;;;;;;28.95;20.20;;;8.60;99.90;;;;;;4866329;29;20204;-86
2024/03/22 05:27:42;;;;;;;29.20;19.30;;;8.50;99.90;;;;;;4866314;29;20215;-88
2024/03/22 05:30:10;;;;;;;31.07;20.33;;;8.50;99.90;;;;;;4865559;29;20679;-85
2024/03/22 05:32:36;;;;;;;32.13;19.73;;;8.50;99.90;;;;;;4866010;29;20271;-86
2024/03/22 05:35:03;;;;;;;30.13;19.73;;;8.50;99.90;;;;;;4866122;29;20328;-86
2024/03/22 05:37:28;;;;;;;32.60;19.60;;;8.50;99.90;;;;;;4859356;29;20180;-86
2024/03/22 05:39:55;;;;;;;33.00;20.42;;;8.60;99.90;;;;;;4847408;29;20208;-86
2024/03/22 05:42:22;;;;;;;28.30;18.50;;;8.50;99.90;;;;;;4847166;29;20208;-86
2024/03/22 05:44:48;;;;;;;29.20;19.17;;;8.60;99.90;;;;;;4847183;29;20208;-86
2024/03/22 05:47:14;;;;;;;32.97;19.97;;;8.60;99.90;;;;;;4863803;29;20181;-87
2024/03/22 05:49:40;;;;;;;28.63;19.37;;;8.60;99.90;;;;;;4847477;29;20183;-86
2024/03/22 05:52:07;;;;;;;31.70;19.50;;;8.70;99.90;;;;;;4847178;29;20189;-86
2024/03/22 05:54:32;;;;;;;29.60;18.77;;;8.70;99.90;;;;;;4847085;29;20187;-86
2024/03/22 05:56:58;;;;;;;30.52;18.98;;;8.70;99.90;;;;;;4847101;29;20271;-90
2024/03/22 05:59:24;;;;;;;28.07;18.80;;;8.80;99.90;;;;;;4846919;29;20180;-87
2024/03/22 06:01:50;;;;;;;31.27;19.30;;;8.80;99.90;;;;;;4847111;29;20636;-86
2024/03/22 06:04:16;;;;;;;33.27;19.53;;;8.80;99.90;;;;;;4862381;29;20177;-86
2024/03/22 06:06:41;;;;;;;28.97;18.90;;;8.80;99.90;;;;;;4846578;29;20639;-86
2024/03/22 06:09:11;;;;;;;37.20;19.95;;;8.80;99.90;;;;;;4863062;29;20521;-87
2024/03/22 06:11:37;;;;;;;36.90;21.27;;;8.80;99.90;;;;;;4847241;29;20180;-87
2024/03/22 06:14:04;;;;;;;31.10;19.73;;;8.90;99.90;;;;;;4847001;29;20177;-88
2024/03/22 06:16:29;;;;;;;33.20;20.27;;;8.90;99.90;;;;;;4846825;29;20241;-86
2024/03/22 06:18:55;;;;;;;31.55;19.80;;;9.00;99.90;;;;;;4846845;29;20188;-86
2024/03/22 06:21:24;;;;;;;32.75;18.88;;;9.00;99.90;;;;;;4863651;29;20224;-87
2024/03/22 06:23:50;;;;;;;32.08;20.77;;;9.00;99.90;;;;;;4847012;29;20223;-87
2024/03/22 06:26:16;;;;;;;34.03;20.20;;;9.00;99.90;;;;;;4846825;29;20240;-87
2024/03/22 06:28:42;;;;;;;30.65;19.77;;;9.00;99.90;;;;;;4863292;29;20180;-87
2024/03/22 06:31:08;;;;;;;35.20;20.90;;;9.10;99.90;;;;;;4862818;29;20187;-88
2024/03/22 06:33:34;;;;;;;32.88;19.98;;;9.10;99.90;;;;;;4865176;29;20236;-88
2024/03/22 06:36:00;;;;;;;34.03;19.85;;;9.10;99.90;;;;;;4865122;29;20639;-92
2024/03/22 06:38:26;;;;;;;31.92;19.20;;;9.10;99.90;;;;;;4865559;29;20176;-87
2024/03/22 06:40:52;;;;;;;34.17;21.08;;;9.10;99.90;;;;;;4864519;29;20195;-86
2024/03/22 06:43:18;;;;;;;34.00;20.13;;;9.10;99.90;;;;;;4864898;29;20184;-87
2024/03/22 06:45:44;;;;;;;34.40;20.75;;;9.20;99.90;;;;;;4863955;29;20251;-86
2024/03/22 06:48:10;;;;;;;32.70;20.97;;;9.20;99.90;;;;;;4864699;29;20643;-88
2024/03/22 06:50:36;;;;;;;35.23;20.53;;;9.30;99.90;;;;;;4864726;29;20623;-89
2024/03/22 06:53:02;;;;;;;37.20;20.42;;;9.30;99.90;;;;;;4864914;29;20180;-87
2024/03/22 06:55:28;;;;;;;35.38;20.75;;;9.30;99.90;;;;;;4881440;29;20198;-92
2024/03/22 06:57:54;;;;;;;35.88;20.67;;;9.30;99.90;;;;;;4864689;29;20188;-87
2024/03/22 07:00:20;;;;;;;33.90;20.75;;;9.40;99.90;;;;;;4864406;29;20236;-88
2024/03/22 07:02:47;;;;;;;39.00;22.13;;;9.40;99.90;;;;;;4864356;29;20179;-86
2024/03/22 07:05:12;;;;;;;34.53;20.77;;;9.40;99.90;;;;;;4863917;29;20218;-90
2024/03/22 07:07:38;;;;;;;36.60;20.87;;;9.40;99.90;;;;;;4864985;29;20554;-87
2024/03/22 07:10:08;;;;;;;37.67;21.58;;;9.40;99.90;;;;;;4881135;29;20259;-86
2024/03/22 07:12:34;;;;;;;35.08;21.40;;;9.50;99.90;;;;;;4864525;29;20191;-86
2024/03/22 07:15:01;;;;;;;36.05;21.52;;;9.50;99.90;;;;;;4864574;29;20267;-86
2024/03/22 07:17:27;;;;;;;36.00;20.60;;;9.60;99.90;;;;;;4863657;29;20635;-88
2024/03/22 07:19:54;;;;;;;35.22;20.85;;;9.60;99.90;;;;;;4864642;29;20266;-86
2024/03/22 07:22:20;;;;;;;34.73;20.83;;;9.60;99.90;;;;;;4864852;29;20184;-88
2024/03/22 07:24:47;;;;;;;35.63;21.58;;;9.70;99.90;;;;;;4864135;29;20212;-86
2024/03/22 07:27:16;;;;;;;39.25;21.13;;;9.70;99.90;;;;;;4880846;29;20324;-87
2024/03/22 07:29:42;;;;;;;36.22;20.98;;;9.70;99.90;;;;;;4863823;29;20235;-90
2024/03/22 07:32:09;;;;;;;35.88;20.77;;;9.80;99.90;;;;;;4881354;29;20188;-90
2024/03/22 07:34:35;;;;;;;33.15;20.15;;;9.90;99.90;;;;;;4880969;29;20179;-88
2024/03/22 07:37:00;;;;;;;34.45;20.98;;;9.90;99.90;;;;;;4880054;29;20176;-87
2024/03/22 07:39:26;;;;;;;35.03;21.10;;;10.00;99.90;;;;;;4880293;29;20184;-90
2024/03/22 07:41:54;;;;;;;37.35;20.90;;;10.00;99.90;;;;;;4881908;29;20183;-92
2024/03/22 07:44:20;;;;;;;32.08;19.27;;;10.00;99.90;;;;;;4881768;29;20172;-92
2024/03/22 07:46:46;;;;;;;32.00;20.20;;;10.00;99.90;;;;;;4881904;29;20184;-94
2024/03/22 07:49:13;;;;;;;34.42;20.90;;;10.10;99.90;;;;;;4881105;29;20266;-87
2024/03/22 07:51:39;;;;;;;30.98;19.77;;;10.10;99.90;;;;;;4880925;29;20531;-87
2024/03/22 07:54:05;;;;;;;31.85;19.38;;;10.10;99.90;;;;;;4884213;29;20259;-90
2024/03/22 07:56:30;;;;;;;33.90;20.27;;;10.20;99.90;;;;;;4884356;29;20256;-90
2024/03/22 07:58:56;;;;;;;33.60;19.92;;;10.30;99.90;;;;;;4884621;29;20191;-87
2024/03/22 08:01:23;;;;;;;30.15;19.23;;;10.30;99.90;;;;;;4883548;29;20180;-91
2024/03/22 08:03:49;;;;;;;33.75;20.15;;;10.40;99.90;;;;;;4883925;29;20195;-88
2024/03/22 08:06:15;;;;;;;33.08;18.88;;;10.40;99.90;;;;;;4883524;29;20208;-87
2024/03/22 08:08:41;;;;;;;31.38;19.45;;;10.50;99.90;;;;;;4884341;29;20183;-88
2024/03/22 08:11:07;;;;;;;32.47;19.80;;;10.40;99.90;;;;;;4884462;29;20180;-90
2024/03/22 08:13:33;;;;;;;33.78;20.27;;;10.50;99.90;;;;;;4883053;29;20542;-86
2024/03/22 08:15:59;;;;;;;31.58;19.13;;;10.50;99.90;;;;;;4882942;29;20274;-86
2024/03/22 08:18:24;;;;;;;29.15;19.00;;;10.60;99.90;;;;;;4882503;29;20188;-88
2024/03/22 08:20:50;;;;;;;31.80;18.75;;;10.60;99.90;;;;;;4883266;29;20243;-88
2024/03/22 08:23:20;;;;;;;31.33;19.48;;;10.60;99.90;;;;;;4884149;29;20180;-87
2024/03/22 08:25:46;;;;;;;37.53;20.60;;;10.60;99.90;;;;;;4882588;29;20673;-91
2024/03/22 08:28:13;;;;;;;29.25;17.85;;;10.60;99.90;;;;;;4883120;29;20213;-88
2024/03/22 08:30:39;;;;;;;31.23;18.83;;;10.60;99.90;;;;;;4882421;29;20240;-86
2024/03/22 08:33:05;;;;;;;32.15;19.90;;;10.60;99.90;;;;;;4882775;29;20180;-89
2024/03/22 08:35:31;;;;;;;31.45;18.35;;;10.60;99.90;;;;;;4882800;29;20184;-88
2024/03/22 08:37:58;;;;;;;29.23;18.80;;;10.60;99.90;;;;;;4883204;29;20274;-87
2024/03/22 08:40:24;;;;;;;30.58;18.27;;;10.60;99.90;;;;;;4884215;29;20180;-90
2024/03/22 08:42:50;;;;;;;29.98;19.38;;;10.70;99.90;;;;;;4882880;29;20200;-87
2024/03/22 08:45:16;;;;;;;30.83;17.90;;;10.80;99.90;;;;;;4882991;29;20291;-91
2024/03/22 08:47:43;;;;;;;29.98;18.63;;;10.80;99.90;;;;;;4871391;29;20199;-93
2024/03/22 08:50:09;;;;;;;31.30;18.42;;;10.80;99.90;;;;;;4867144;29;20616;-89
2024/03/22 08:52:42;;;;;;;29.45;18.92;;;10.90;99.90;;;;;;4867332;29;20188;-87
2024/03/22 08:55:08;;;;;;;28.95;17.85;;;10.90;99.90;;;;;;4867112;29;20258;-89
2024/03/22 08:57:34;;;;;;;29.02;17.52;;;10.90;99.90;;;;;;4867077;29;20207;-91
2024/03/22 08:59:59;;;;;;;28.42;18.45;;;11.00;99.90;;;;;;4883599;29;20515;-86
2024/03/22 09:02:26;;;;;;;30.50;18.10;;;11.10;99.90;;;;;;4867075;29;20267;-88
2024/03/22 09:04:53;;;;;;;30.75;18.38;;;11.20;99.90;;;;;;4866912;29;20262;-90
2024/03/22 09:07:19;;;;;;;29.38;18.05;;;11.20;99.90;;;;;;4867786;29;20184;-87
2024/03/22 09:09:45;;;;;;;29.85;18.15;;;11.30;99.90;;;;;;4866961;29;20520;-87
2024/03/22 09:12:11;;;;;;;29.00;17.50;;;11.30;99.90;;;;;;4867230;29;20180;-91
2024/03/22 09:14:39;;;;;;;31.17;18.50;;;11.40;99.90;;;;;;4867152;29;20188;-88
2024/03/22 09:17:04;;;;;;;32.50;18.92;;;11.40;99.90;;;;;;4866396;29;20176;-87
2024/03/22 09:19:31;;;;;;;28.08;18.05;;;11.50;99.90;;;;;;4883501;29;20252;-86
2024/03/22 09:21:57;;;;;;;30.17;17.60;;;11.60;99.90;;;;;;4866795;29;20259;-90
2024/03/22 09:24:24;;;;;;;27.17;17.88;;;11.70;99.90;;;;;;4866370;29;20188;-90
2024/03/22 09:26:50;;;;;;;28.38;17.92;;;11.70;99.90;;;;;;4866914;29;20287;-86
2024/03/22 09:29:16;;;;;;;30.25;18.48;;;11.70;99.90;;;;;;4883133;29;20687;-92
2024/03/22 09:31:42;;;;;;;28.85;18.17;;;11.70;99.90;;;;;;4865898;29;20527;-90
2024/03/22 09:34:12;;;;;;;26.42;16.73;;;11.80;99.90;;;;;;4882970;29;20214;-91
2024/03/22 09:36:38;;;;;;;27.15;17.35;;;11.70;99.90;;;;;;4882734;29;20612;-86
2024/03/22 09:39:04;;;;;;;33.30;18.17;;;11.70;99.90;;;;;;4866138;29;20184;-93
2024/03/22 09:41:32;;;;;;;27.13;17.15;;;11.60;99.90;;;;;;4866405;29;20244;-87
2024/03/22 09:44:02;;;;;;;26.23;17.17;;;11.60;99.90;;;;;;4881352;29;20266;-87
2024/03/22 09:46:28;;;;;;;26.27;17.13;;;11.60;99.90;;;;;;4878809;29;20204;-87
2024/03/22 09:48:55;;;;;;;28.60;16.92;;;11.60;99.90;;;;;;4865690;29;20184;-87
2024/03/22 09:51:21;;;;;;;27.02;16.70;;;11.50;99.90;;;;;;4866028;29;20592;-87
2024/03/22 09:53:53;;;;;;;28.52;17.17;;;11.50;99.90;;;;;;4882045;29;20244;-89
2024/03/22 09:56:21;;;;;;;33.08;16.77;;;11.40;99.90;;;;;;4866243;29;20204;-87
2024/03/22 09:58:47;;;;;;;29.13;17.65;;;11.40;99.90;;;;;;4865860;29;20560;-87
2024/03/22 10:01:13;;;;;;;24.48;16.15;;;11.40;99.90;;;;;;4873144;29;20182;-86
2024/03/22 10:03:40;;;;;;;29.25;16.15;;;11.40;99.90;;;;;;4875537;29;20209;-86
2024/03/22 10:06:06;;;;;;;25.77;17.33;;;11.40;99.90;;;;;;4900917;29;20215;-88
2024/03/22 10:08:32;;;;;;;28.90;17.88;;;11.50;99.90;;;;;;4899830;29;20555;-88
2024/03/22 10:11:01;;;;;;;28.05;16.42;;;11.40;99.90;;;;;;4900843;29;20183;-88
2024/03/22 10:13:29;;;;;;;27.13;16.20;;;11.30;99.90;;;;;;4883996;29;20179;-86
2024/03/22 10:15:56;;;;;;;28.45;16.77;;;11.30;99.90;;;;;;4882625;29;20179;-87
2024/03/22 10:18:22;;;;;;;28.42;17.13;;;11.30;99.90;;;;;;4877664;29;20192;-89
2024/03/22 10:21:01;;;;;;;29.08;17.58;;;11.30;99.90;;;;;;4880824;29;20184;-89
2024/03/22 10:23:30;;;;;;;24.63;16.35;;;11.40;99.90;;;;;;4880950;29;20669;-94
2024/03/22 10:26:00;;;;;;;30.35;17.20;;;11.40;99.90;;;;;;4882349;29;20211;-88
2024/03/22 10:28:26;;;;;;;26.33;16.58;;;11.50;99.90;;;;;;4882304;29;20168;-87
2024/03/22 10:30:52;;;;;;;29.85;16.80;;;11.60;99.90;;;;;;4883750;29;20183;-88
2024/03/22 10:33:20;;;;;;;27.40;17.38;;;11.70;99.90;;;;;;4883160;29;20295;-86
2024/03/22 10:35:47;;;;;;;26.83;17.33;;;11.80;99.90;;;;;;4883265;29;20187;-88
2024/03/22 10:38:14;;;;;;;25.98;16.90;;;11.90;99.90;;;;;;4884110;29;20179;-89
2024/03/22 10:40:45;;;;;;;26.65;16.02;;;12.00;99.90;;;;;;4883692;29;20194;-87
2024/03/22 10:43:11;;;;;;;24.98;15.63;;;12.10;99.90;;;;;;4900403;29;20491;-86
2024/03/22 10:45:38;;;;;;;27.48;15.77;;;12.20;99.90;;;;;;4900131;29;20211;-86
2024/03/22 10:48:09;;;;;;;25.00;15.70;;;12.30;99.90;;;;;;4865928;29;20188;-89
2024/03/22 10:50:39;;;;;;;26.00;15.10;;;12.30;99.90;;;;;;4864622;29;20514;-87
2024/03/22 10:53:11;;;;;;;26.17;14.40;;;12.30;99.90;;;;;;4864863;29;20188;-86
2024/03/22 10:55:45;;;;;;;21.05;14.32;;;12.30;99.90;;;;;;4864830;29;20172;-87
2024/03/22 10:58:24;;;;;;;23.10;13.68;;;12.30;99.90;;;;;;4881620;29;20176;-86
2024/03/22 11:00:54;;;;;;;20.90;13.38;;;12.20;99.90;;;;;;4865280;29;20218;-85
2024/03/22 11:03:23;;;;;;;23.00;13.95;;;12.20;99.90;;;;;;4881040;29;20214;-87
2024/03/22 11:05:50;;;;;;;22.27;13.65;;;12.20;99.90;;;;;;4864732;29;20674;-85
2024/03/22 11:08:27;;;;;;;20.33;13.15;;;12.30;99.90;;;;;;4860750;29;20219;-86
2024/03/22 11:10:53;;;;;;;22.52;13.48;;;12.30;99.90;;;;;;4867600;29;20274;-86
2024/03/22 11:13:20;;;;;;;19.80;12.80;;;12.40;99.90;;;;;;4879609;29;20184;-85
2024/03/22 11:15:49;;;;;;;21.48;13.82;;;12.40;99.90;;;;;;4865113;29;20623;-86
2024/03/22 11:18:16;;;;;;;23.20;13.82;;;12.50;99.90;;;;;;4869275;29;20190;-89
2024/03/22 11:20:42;;;;;;;19.00;12.60;;;12.40;99.90;;;;;;4865650;29;20184;-85
2024/03/22 11:23:09;;;;;;;20.52;12.73;;;12.40;99.90;;;;;;4880028;29;20191;-85
2024/03/22 11:25:36;;;;;;;19.58;12.23;;;12.50;99.90;;;;;;4879961;29;20301;-87
2024/03/22 11:28:02;;;;;;;21.13;12.00;;;12.50;99.90;;;;;;4873372;29;20190;-84
2024/03/22 11:30:29;;;;;;;20.10;11.52;;;12.50;99.90;;;;;;4869355;29;20239;-86
2024/03/22 11:32:55;;;;;;;19.73;11.93;;;12.60;99.90;;;;;;4863904;29;20228;-86
2024/03/22 11:35:23;;;;;;;19.52;11.40;;;12.50;99.90;;;;;;4872858;29;20191;-86
2024/03/22 11:37:49;;;;;;;21.50;12.23;;;12.50;99.90;;;;;;4864245;29;20196;-86
2024/03/22 11:40:15;;;;;;;16.83;11.13;;;12.50;99.90;;;;;;4858484;29;20695;-84
2024/03/22 11:42:50;;;;;;;18.00;11.75;;;12.50;99.90;;;;;;4878065;29;20279;-86
2024/03/22 11:45:18;;;;;;;16.00;10.95;;;12.50;99.90;;;;;;4882848;29;20539;-86
2024/03/22 11:47:45;;;;;;;15.30;10.50;;;12.50;99.90;;;;;;4877561;29;20582;-86
2024/03/22 11:50:15;;;;;;;17.77;10.85;;;12.50;99.90;;;;;;4879330;29;20187;-86
2024/03/22 11:52:46;;;;;;;21.92;11.38;;;12.60;99.90;;;;;;4882901;29;20202;-84
2024/03/22 11:55:13;;;;;;;18.08;10.95;;;12.60;99.90;;;;;;4860291;29;20567;-86
2024/03/22 11:57:39;;;;;;;15.40;10.45;;;12.80;99.90;;;;;;4860192;29;20535;-87
2024/03/22 12:00:08;;;;;;;16.45;9.95;;;12.90;99.90;;;;;;4863263;29;20187;-87
2024/03/22 12:02:36;;;;;;;15.27;10.63;;;12.90;99.90;;;;;;4870258;29;20235;-87
2024/03/22 12:05:05;;;;;;;15.20;9.65;;;13.00;99.90;;;;;;4862450;29;20212;-84
2024/03/22 12:07:32;;;;;;;14.40;9.60;;;13.10;99.90;;;;;;4865729;29;20211;-85
2024/03/22 12:09:58;;;;;;;15.60;9.52;;;13.10;99.90;;;;;;4863167;29;20710;-88
2024/03/22 12:12:24;;;;;;;13.50;8.90;;;13.10;99.90;;;;;;4879343;29;20229;-86
2024/03/22 12:14:51;;;;;;;15.82;9.48;;;13.00;99.90;;;;;;4866981;29;20211;-85
2024/03/22 12:17:17;;;;;;;15.63;8.95;;;13.00;99.90;;;;;;4879137;29;20263;-86
2024/03/22 12:19:43;;;;;;;14.20;8.50;;;13.10;99.90;;;;;;4878885;29;20530;-87
2024/03/22 12:22:09;;;;;;;15.15;9.88;;;13.20;99.90;;;;;;4878755;29;20184;-87
2024/03/22 12:24:36;;;;;;;13.13;9.43;;;13.20;99.90;;;;;;4879955;29;20184;-84
2024/03/22 12:27:02;;;;;;;17.58;9.55;;;13.20;99.90;;;;;;4881246;29;20565;-84
2024/03/22 12:29:28;;;;;;;12.95;9.18;;;13.20;99.90;;;;;;4878369;29;20267;-86
2024/03/22 12:31:54;;;;;;;13.85;8.90;;;13.20;99.90;;;;;;4866831;29;20200;-83
2024/03/22 12:34:21;;;;;;;14.30;8.57;;;13.10;99.90;;;;;;4865765;29;20181;-84